createdAt,value
2023-01-29T00:00:12.863Z,48.50
2023-01-29T00:02:39.988Z,63.65
2023-01-29T00:05:26.409Z,53.72
2023-01-29T00:07:55.156Z,59.17
2023-01-29T00:10:22.654Z,67.70
2023-01-29T00:12:49.308Z,57.08
2023-01-29T00:15:19.027Z,65.50
2023-01-29T00:17:45.626Z,70.47
2023-01-29T00:20:13.035Z,48.38
2023-01-29T00:22:42.338Z,63.28
2023-01-29T00:25:10.015Z,67.97
2023-01-29T00:27:37.223Z,54.28
2023-01-29T00:30:12.912Z,104.55
2023-01-29T00:32:43.430Z,59.67
2023-01-29T00:35:10.945Z,71.30
2023-01-29T00:37:38.487Z,58.10
2023-01-29T00:40:06.466Z,89.47
2023-01-29T00:42:53.606Z,49.55
2023-01-29T00:45:20.557Z,80.78
2023-01-29T00:47:47.376Z,96.78
2023-01-29T00:50:14.657Z,56.10
2023-01-29T00:52:42.584Z,69.55
2023-01-29T00:55:11.744Z,88.28
2023-01-29T00:57:39.459Z,76.60
2023-01-29T01:00:13.377Z,80.38
2023-01-29T01:02:59.024Z,90.57
2023-01-29T01:05:25.902Z,67.30
2023-01-29T01:07:57.749Z,88.53
2023-01-29T01:10:33.661Z,74.95
2023-01-29T01:13:10.380Z,89.32
2023-01-29T01:15:40.595Z,64.90
2023-01-29T01:18:10.347Z,98.85
2023-01-29T01:20:37.370Z,87.28
2023-01-29T01:23:05.220Z,55.08
2023-01-29T01:25:32.068Z,76.28
2023-01-29T01:28:02.890Z,75.40
2023-01-29T01:30:30.168Z,49.03
2023-01-29T01:32:56.879Z,49.35
2023-01-29T01:35:23.696Z,52.17
2023-01-29T01:37:50.401Z,47.05
2023-01-29T01:40:24.164Z,62.45
2023-01-29T01:42:58.062Z,61.88
2023-01-29T01:45:37.542Z,53.00
2023-01-29T01:48:23.601Z,61.83
2023-01-29T01:51:05.257Z,70.55
2023-01-29T01:53:44.975Z,54.42
2023-01-29T01:56:26.444Z,55.65
2023-01-29T01:58:59.342Z,60.83
2023-01-29T02:01:28.728Z,60.20
2023-01-29T02:04:35.047Z,57.58
2023-01-29T02:07:28.739Z,60.83
2023-01-29T02:10:12.437Z,49.67
2023-01-29T02:12:43.106Z,43.57
2023-01-29T02:15:11.113Z,40.25
2023-01-29T02:17:38.641Z,46.60
2023-01-29T02:20:29.156Z,50.22
2023-01-29T02:24:09.975Z,44.20
2023-01-29T02:27:07.858Z,40.53
2023-01-29T02:30:09.501Z,57.42
2023-01-29T02:33:00.974Z,53.33
2023-01-29T02:35:46.675Z,55.45
2023-01-29T02:38:55.519Z,51.67
2023-01-29T02:41:34.040Z,54.78
2023-01-29T02:44:25.147Z,44.92
2023-01-29T02:47:13.990Z,48.33
2023-01-29T02:50:15.542Z,57.42
2023-01-29T02:52:59.937Z,65.70
2023-01-29T02:55:42.202Z,58.90
2023-01-29T02:58:41.323Z,62.88
2023-01-29T03:01:18.847Z,55.55
2023-01-29T03:04:05.231Z,59.42
2023-01-29T03:06:54.274Z,60.13
2023-01-29T03:09:49.553Z,54.38
2023-01-29T03:12:37.012Z,60.55
2023-01-29T03:15:16.906Z,59.00
2023-01-29T03:18:09.636Z,58.47
2023-01-29T03:20:55.527Z,63.17
2023-01-29T03:23:48.619Z,66.38
2023-01-29T03:26:40.525Z,55.40
2023-01-29T03:29:30.584Z,63.78
2023-01-29T03:32:07.902Z,48.65
2023-01-29T03:34:53.056Z,59.50
2023-01-29T03:37:46.907Z,55.70
2023-01-29T03:40:15.972Z,48.50
2023-01-29T03:43:25.862Z,55.70
2023-01-29T03:46:32.136Z,56.42
2023-01-29T03:49:43.975Z,46.17
2023-01-29T03:52:48.509Z,51.13
2023-01-29T03:56:03.760Z,44.55
2023-01-29T03:59:04.674Z,50.40
2023-01-29T04:01:57.652Z,47.25
2023-01-29T04:04:35.004Z,41.80
2023-01-29T04:07:13.960Z,39.05
2023-01-29T04:10:00.756Z,38.47
2023-01-29T04:12:41.113Z,37.95
2023-01-29T04:15:15.445Z,36.15
2023-01-29T04:20:17.563Z,38.60
2023-01-29T04:22:50.380Z,42.17
2023-01-29T04:25:36.317Z,41.60
2023-01-29T04:28:46.767Z,38.83
2023-01-29T04:31:14.724Z,31.45
2023-01-29T04:34:20.844Z,37.70
2023-01-29T04:37:13.348Z,39.67
2023-01-29T04:39:56.631Z,36.05
2023-01-29T04:42:41.597Z,31.42
2023-01-29T04:45:35.093Z,33.13
2023-01-29T04:48:30.797Z,34.63
2023-01-29T04:51:38.638Z,34.95
2023-01-29T04:54:23.436Z,28.92
2023-01-29T04:57:37.027Z,36.88
2023-01-29T05:00:27.539Z,31.20
2023-01-29T05:02:56.400Z,27.05
2023-01-29T05:05:23.155Z,28.95
2023-01-29T05:07:51.421Z,31.23
2023-01-29T05:10:23.005Z,31.52
2023-01-29T05:13:02.739Z,27.75
2023-01-29T05:15:51.334Z,32.45
2023-01-29T05:18:18.846Z,30.90
2023-01-29T05:20:48.243Z,31.08
2023-01-29T05:23:21.364Z,30.45
2023-01-29T05:25:53.598Z,35.60
2023-01-29T05:28:20.224Z,43.00
2023-01-29T05:30:52.182Z,39.22
2023-01-29T05:33:31.290Z,40.75
2023-01-29T05:36:00.269Z,49.13
2023-01-29T05:38:27.038Z,49.53
2023-01-29T05:40:54.699Z,49.72
2023-01-29T05:43:26.085Z,51.05
2023-01-29T05:46:01.319Z,49.83
2023-01-29T05:48:32.767Z,52.85
2023-01-29T05:51:05.238Z,48.33
2023-01-29T05:53:38.694Z,47.60
2023-01-29T05:56:08.713Z,54.70
2023-01-29T05:58:39.214Z,39.78
2023-01-29T06:01:20.067Z,50.88
2023-01-29T06:03:47.874Z,39.75
2023-01-29T06:06:16.089Z,45.45
2023-01-29T06:08:43.552Z,56.22
2023-01-29T06:11:13.490Z,41.92
2023-01-29T06:13:43.169Z,43.47
2023-01-29T06:16:13.132Z,40.20
2023-01-29T06:18:44.176Z,43.10
2023-01-29T06:21:14.101Z,33.63
2023-01-29T06:23:46.729Z,31.10
2023-01-29T06:26:18.877Z,28.90
2023-01-29T06:28:50.039Z,29.38
2023-01-29T06:31:37.894Z,26.75
2023-01-29T06:34:06.678Z,23.60
2023-01-29T06:36:33.835Z,21.80
2023-01-29T06:39:00.486Z,20.05
2023-01-29T06:41:27.249Z,24.42
2023-01-29T06:43:54.115Z,17.27
2023-01-29T06:46:21.117Z,18.88
2023-01-29T06:48:47.813Z,18.20
2023-01-29T06:51:14.610Z,14.90
2023-01-29T08:04:20.747Z,25.45
2023-01-29T08:06:47.369Z,32.20
2023-01-29T08:09:14.168Z,30.25
2023-01-29T08:11:44.039Z,30.30
2023-01-29T08:14:10.777Z,28.00
2023-01-29T08:16:37.466Z,30.83
2023-01-29T08:19:04.266Z,18.42
2023-01-29T08:21:31.030Z,33.80
2023-01-29T08:23:57.762Z,27.42
2023-01-29T08:26:26.253Z,27.58
2023-01-29T08:28:55.984Z,25.80
2023-01-29T08:31:22.996Z,30.50
2023-01-29T08:33:49.874Z,29.33
2023-01-29T09:08:48.236Z,16.10
2023-01-29T10:13:25.562Z,34.65
2023-01-29T10:16:35.375Z,31.77
2023-01-29T10:45:59.384Z,17.98
2023-01-29T10:49:12.326Z,29.25
2023-01-29T12:46:30.554Z,18.33
2023-01-29T13:10:41.931Z,26.30
2023-01-29T13:13:54.619Z,27.20
2023-01-29T13:16:48.461Z,28.88
2023-01-29T13:19:49.645Z,27.27
2023-01-29T13:22:35.419Z,28.85
2023-01-29T13:25:05.696Z,25.90
2023-01-29T13:27:36.686Z,27.83
2023-01-29T13:30:06.670Z,32.05
2023-01-29T13:32:36.418Z,30.58
2023-01-29T13:35:14.221Z,29.45
2023-01-29T13:37:53.367Z,31.20
2023-01-29T13:40:29.634Z,28.25
2023-01-29T13:43:01.203Z,36.25
2023-01-29T13:45:47.103Z,32.25
2023-01-29T13:48:36.923Z,29.17
2023-01-29T13:51:17.046Z,27.00
2023-01-29T13:54:02.424Z,23.10
2023-01-29T13:57:00.605Z,26.63
2023-01-29T13:59:55.388Z,36.58
2023-01-29T14:02:31.669Z,32.58
2023-01-29T14:05:29.489Z,30.42
2023-01-29T14:08:35.885Z,23.48
2023-01-29T14:11:17.910Z,25.45
2023-01-29T14:13:54.316Z,26.98
2023-01-29T14:16:20.939Z,22.40
2023-01-29T14:19:19.028Z,30.58
2023-01-29T14:22:00.197Z,32.13
2023-01-29T14:24:31.378Z,28.35
2023-01-29T14:27:00.522Z,34.72
2023-01-29T14:29:44.518Z,34.60
2023-01-29T14:32:24.906Z,33.53
2023-01-29T14:35:03.497Z,26.02
2023-01-29T14:37:54.596Z,25.92
2023-01-29T14:40:29.723Z,37.58
2023-01-29T14:43:19.938Z,31.73
2023-01-29T14:46:34.027Z,32.05
2023-01-29T14:49:01.652Z,35.00
2023-01-29T14:51:44.937Z,34.47
2023-01-29T14:54:33.654Z,34.55
2023-01-29T14:57:10.962Z,36.50
2023-01-29T15:00:08.674Z,40.13
2023-01-29T15:02:45.628Z,37.47
2023-01-29T15:05:31.253Z,36.40
2023-01-29T15:08:32.665Z,35.20
2023-01-29T15:11:35.354Z,35.45
2023-01-29T15:14:44.524Z,39.67
2023-01-29T15:17:41.759Z,37.00
2023-01-29T15:20:43.821Z,33.83
2023-01-29T15:23:35.121Z,31.08
2023-01-29T15:26:17.329Z,40.22
2023-01-29T15:28:51.865Z,36.80
2023-01-29T15:31:29.340Z,38.88
2023-01-29T15:33:57.293Z,40.65
2023-01-29T15:36:30.026Z,40.58
2023-01-29T15:39:12.081Z,43.75
2023-01-29T15:41:41.351Z,35.63
2023-01-29T15:44:23.016Z,37.83
2023-01-29T15:47:09.934Z,29.98
2023-01-29T15:49:46.522Z,37.85
2023-01-29T15:52:28.879Z,36.63
2023-01-29T15:55:04.273Z,31.70
2023-01-29T15:57:45.114Z,43.38
2023-01-29T16:00:27.589Z,47.00
2023-01-29T16:02:57.050Z,42.13
2023-01-29T16:05:33.060Z,30.75
2023-01-29T16:08:03.850Z,46.25
2023-01-29T16:10:33.589Z,30.20
2023-01-29T16:13:03.132Z,39.45
2023-01-29T16:15:53.724Z,42.90
2023-01-29T16:18:35.320Z,35.95
2023-01-29T16:21:38.635Z,40.05
2023-01-29T16:24:19.605Z,32.28
2023-01-29T16:26:56.979Z,39.50
2023-01-29T16:29:32.846Z,42.80
2023-01-29T16:32:10.387Z,34.35
2023-01-29T16:34:56.007Z,40.38
2023-01-29T16:37:32.114Z,26.65
2023-01-29T16:40:15.707Z,36.20
2023-01-29T16:42:45.735Z,42.95
2023-01-29T16:45:28.861Z,39.42
2023-01-29T16:48:33.366Z,38.65
2023-01-29T16:51:13.846Z,31.98
2023-01-29T16:54:23.568Z,24.92
2023-01-29T16:57:02.034Z,34.40
2023-01-29T16:59:46.712Z,29.48
2023-01-29T17:05:19.959Z,56.75
2023-01-29T17:07:47.677Z,20.95
2023-01-29T17:10:28.946Z,27.35
2023-01-29T17:13:08.380Z,27.83
2023-01-29T17:15:46.759Z,26.88
2023-01-29T17:18:24.105Z,28.42
2023-01-29T17:20:54.775Z,24.85
2023-01-29T17:23:23.532Z,26.05
2023-01-29T17:25:51.724Z,27.58
2023-01-29T17:28:19.397Z,24.80
2023-01-29T17:31:06.176Z,27.40
2023-01-29T17:33:45.778Z,25.50
2023-01-29T17:36:17.300Z,27.17
2023-01-29T17:38:47.077Z,24.75
2023-01-29T17:41:35.516Z,25.50
2023-01-29T17:44:02.251Z,29.40
2023-01-29T17:46:29.042Z,29.23
2023-01-29T17:48:58.225Z,19.38
2023-01-29T17:51:25.136Z,26.83
2023-01-29T17:53:52.050Z,32.60
2023-01-29T17:56:30.597Z,21.42
2023-01-29T17:59:00.857Z,24.48
2023-01-29T18:01:27.730Z,20.75
2023-01-29T18:03:57.282Z,26.80
2023-01-29T18:06:31.872Z,27.85
2023-01-29T18:08:58.730Z,27.52
2023-01-29T18:11:25.948Z,26.70
2023-01-29T18:13:56.493Z,28.65
2023-01-29T18:16:24.743Z,25.75
2023-01-29T18:18:55.052Z,27.77
2023-01-29T18:21:24.412Z,24.48
2023-01-29T18:24:00.581Z,33.80
2023-01-29T18:26:27.312Z,31.73
2023-01-29T18:28:57.139Z,34.08
2023-01-29T18:31:23.765Z,30.33
2023-01-29T20:18:44.980Z,26.48
2023-01-29T21:18:46.226Z,73.03
2023-01-29T21:21:13.277Z,49.92
2023-01-29T22:35:34.340Z,39.15
2023-01-29T22:38:10.231Z,37.40
2023-01-29T22:40:36.978Z,45.50
2023-01-29T22:43:11.274Z,38.75
2023-01-29T22:48:08.799Z,37.55
2023-01-29T22:50:35.500Z,40.60
2023-01-29T22:53:08.632Z,40.20
2023-01-29T22:55:44.081Z,42.65
2023-01-29T22:58:13.143Z,40.75
2023-01-29T23:00:42.955Z,37.78
2023-01-29T23:03:12.632Z,40.78
2023-01-29T23:05:45.543Z,38.30
2023-01-29T23:08:12.238Z,41.75
2023-01-29T23:10:39.086Z,33.13
2023-01-29T23:13:08.366Z,39.72
2023-01-29T23:15:47.225Z,36.88
2023-01-29T23:18:13.945Z,29.48
2023-01-29T23:20:44.328Z,28.55
2023-01-29T23:23:11.071Z,33.47
2023-01-29T23:25:56.389Z,34.05
2023-01-29T23:28:23.088Z,35.35
2023-01-29T23:30:52.138Z,39.05
2023-01-29T23:33:19.077Z,46.40
2023-01-29T23:35:48.921Z,29.77
2023-01-29T23:38:26.823Z,32.45
2023-01-29T23:43:38.543Z,33.10
2023-01-29T23:46:08.712Z,40.03
2023-01-29T23:48:37.955Z,44.42
2023-01-29T23:51:13.117Z,42.60
2023-01-29T23:53:42.817Z,43.92
2023-01-29T23:56:11.661Z,41.65
2023-01-29T23:58:38.421Z,31.88
